Time;durP1;ratioP1;P1;durP2;ratioP2;P2;SDS_P1;SDS_P2;PMS_P1;PMS_P2;Temp;Humidity;BMP_temperature;BMP_pressure;BME280_temperature;BME280_humidity;BME280_pressure;Samples;Min_cycle;Max_cycle;Signal;HPM_P1;HPM_P2
2023/04/09 00:00:14;;;;;;;21.27;19.07;;;;;;;;;;5033543;28;20448;-57
2023/04/09 00:02:40;;;;;;;23.73;20.93;;;;;;;;;;5033647;28;20404;-58
2023/04/09 00:05:06;;;;;;;31.93;22.83;;;;;;;;;;5015742;28;20424;-58
2023/04/09 00:07:32;;;;;;;31.57;22.90;;;;;;;;;;5033806;28;20431;-58
2023/04/09 00:09:58;;;;;;;29.40;22.43;;;;;;;;;;5033436;28;20415;-58
2023/04/09 00:12:24;;;;;;;29.03;22.20;;;;;;;;;;5033384;28;21049;-57
2023/04/09 00:14:55;;;;;;;31.00;21.43;;;;;;;;;;5033281;28;20507;-58
2023/04/09 00:17:21;;;;;;;57.13;30.90;;;;;;;;;;5032735;28;20927;-58
2023/04/09 00:19:47;;;;;;;49.90;28.80;;;;;;;;;;5033097;28;20605;-57
2023/04/09 00:22:16;;;;;;;38.23;25.60;;;;;;;;;;5033178;28;20752;-60
2023/04/09 00:24:44;;;;;;;42.53;27.13;;;;;;;;;;5033460;28;20442;-57
2023/04/09 00:27:10;;;;;;;51.83;27.63;;;;;;;;;;5033058;28;20494;-58
2023/04/09 00:29:39;;;;;;;112.17;45.83;;;;;;;;;;5033140;28;20486;-58
2023/04/09 00:32:05;;;;;;;51.80;27.90;;;;;;;;;;5033003;28;20883;-58
2023/04/09 00:34:31;;;;;;;117.23;48.90;;;;;;;;;;5033042;28;20502;-57
2023/04/09 00:36:57;;;;;;;29.70;22.90;;;;;;;;;;5032791;28;20463;-58
2023/04/09 00:39:23;;;;;;;51.07;28.80;;;;;;;;;;5032924;28;20997;-58
2023/04/09 00:41:49;;;;;;;43.77;27.80;;;;;;;;;;5033050;28;20412;-57
2023/04/09 00:44:15;;;;;;;48.47;28.47;;;;;;;;;;5033100;28;20383;-58
2023/04/09 00:46:41;;;;;;;32.10;22.50;;;;;;;;;;5032761;28;20473;-57
2023/04/09 00:49:07;;;;;;;31.97;23.23;;;;;;;;;;5032880;28;20848;-58
2023/04/09 00:51:33;;;;;;;30.60;22.63;;;;;;;;;;5032710;28;20942;-58
2023/04/09 00:54:01;;;;;;;25.03;20.77;;;;;;;;;;5014853;28;20930;-58
2023/04/09 00:56:27;;;;;;;26.47;21.23;;;;;;;;;;5032493;28;20463;-58
2023/04/09 00:58:54;;;;;;;26.50;22.30;;;;;;;;;;5032415;28;20411;-57
2023/04/09 01:01:20;;;;;;;34.00;23.67;;;;;;;;;;5032294;28;20444;-58
2023/04/09 01:03:48;;;;;;;26.83;23.00;;;;;;;;;;5032752;28;20471;-57
2023/04/09 01:06:26;;;;;;;30.70;24.40;;;;;;;;;;5032349;28;20506;-57
2023/04/09 01:09:04;;;;;;;34.17;25.03;;;;;;;;;;5014735;28;20415;-57
2023/04/09 01:11:41;;;;;;;28.77;22.77;;;;;;;;;;5032313;28;20875;-57
2023/04/09 01:14:20;;;;;;;31.87;24.53;;;;;;;;;;5032279;28;20813;-58
2023/04/09 01:16:50;;;;;;;31.67;24.90;;;;;;;;;;5032223;28;20469;-58
2023/04/09 01:19:30;;;;;;;25.40;21.80;;;;;;;;;;5032103;28;20804;-57
2023/04/09 01:21:57;;;;;;;24.70;20.97;;;;;;;;;;5032397;28;20891;-57
2023/04/09 01:24:29;;;;;;;22.17;19.73;;;;;;;;;;5032188;28;20428;-58
2023/04/09 01:27:08;;;;;;;29.07;22.33;;;;;;;;;;5032242;28;20427;-58
2023/04/09 01:29:36;;;;;;;28.97;22.87;;;;;;;;;;5031202;28;20431;-57
2023/04/09 01:32:03;;;;;;;26.40;22.30;;;;;;;;;;5032178;28;20426;-59
2023/04/09 01:34:30;;;;;;;25.30;22.10;;;;;;;;;;5032097;28;20420;-58
2023/04/09 01:36:58;;;;;;;22.83;19.37;;;;;;;;;;5032029;28;20522;-56
2023/04/09 01:39:24;;;;;;;23.90;20.90;;;;;;;;;;5032037;28;20458;-58
2023/04/09 01:41:50;;;;;;;25.47;20.20;;;;;;;;;;5032104;28;20418;-57
2023/04/09 01:44:17;;;;;;;24.00;19.97;;;;;;;;;;5031964;28;20427;-58
2023/04/09 01:46:43;;;;;;;22.57;18.60;;;;;;;;;;5032144;28;20507;-58
2023/04/09 01:49:09;;;;;;;22.00;19.40;;;;;;;;;;5014172;28;20432;-57
2023/04/09 01:51:38;;;;;;;22.73;18.90;;;;;;;;;;5014162;28;20535;-58
2023/04/09 01:54:04;;;;;;;21.93;18.80;;;;;;;;;;5031932;28;20915;-58
2023/04/09 01:56:40;;;;;;;24.63;17.50;;;;;;;;;;5031823;28;20521;-58
2023/04/09 01:59:06;;;;;;;21.20;18.10;;;;;;;;;;5031882;28;20417;-58
2023/04/09 02:01:38;;;;;;;23.40;19.07;;;;;;;;;;5031775;28;20410;-58
2023/04/09 02:04:09;;;;;;;20.97;18.70;;;;;;;;;;5031789;28;20407;-58
2023/04/09 02:06:40;;;;;;;22.07;18.03;;;;;;;;;;5031847;28;20388;-58
2023/04/09 02:09:08;;;;;;;20.23;17.73;;;;;;;;;;5031672;28;20413;-58
2023/04/09 02:11:34;;;;;;;21.40;18.07;;;;;;;;;;5031915;28;20444;-58
2023/04/09 02:14:00;;;;;;;21.27;18.63;;;;;;;;;;5031660;28;20408;-58
2023/04/09 02:16:26;;;;;;;20.60;18.40;;;;;;;;;;5031528;28;20441;-57
2023/04/09 02:18:55;;;;;;;35.87;23.23;;;;;;;;;;5031951;28;20444;-58
2023/04/09 02:21:22;;;;;;;99.90;39.37;;;;;;;;;;5013789;28;20510;-55
2023/04/09 02:23:48;;;;;;;46.50;25.67;;;;;;;;;;5031807;28;20499;-58
2023/04/09 02:26:14;;;;;;;57.53;28.00;;;;;;;;;;5031802;28;20493;-56
2023/04/09 02:28:40;;;;;;;88.53;33.50;;;;;;;;;;5032016;28;20402;-58
2023/04/09 02:31:06;;;;;;;33.83;20.30;;;;;;;;;;5031769;28;20429;-58
2023/04/09 02:33:32;;;;;;;30.43;20.67;;;;;;;;;;5031582;28;20416;-58
2023/04/09 02:36:00;;;;;;;26.80;19.53;;;;;;;;;;5031622;28;20451;-58
2023/04/09 02:38:26;;;;;;;23.13;20.03;;;;;;;;;;5031696;28;20367;-58
2023/04/09 02:40:52;;;;;;;22.37;19.10;;;;;;;;;;5033747;28;20386;-58
2023/04/09 02:43:23;;;;;;;21.63;18.77;;;;;;;;;;5034852;28;20398;-57
2023/04/09 02:45:51;;;;;;;19.53;16.80;;;;;;;;;;5035127;28;20460;-57
2023/04/09 02:48:17;;;;;;;21.87;17.30;;;;;;;;;;5035245;28;20796;-58
2023/04/09 02:50:43;;;;;;;18.47;16.53;;;;;;;;;;5035104;28;20402;-58
2023/04/09 02:53:09;;;;;;;17.60;15.87;;;;;;;;;;5035022;28;20439;-58
2023/04/09 02:55:35;;;;;;;22.53;16.17;;;;;;;;;;5034840;28;20467;-57
2023/04/09 02:58:01;;;;;;;20.33;16.70;;;;;;;;;;5035065;28;20409;-57
2023/04/09 03:00:27;;;;;;;19.47;16.27;;;;;;;;;;5034674;28;20420;-57
2023/04/09 03:02:56;;;;;;;18.03;15.93;;;;;;;;;;5034747;28;20465;-58
2023/04/09 03:05:22;;;;;;;17.73;15.80;;;;;;;;;;5034735;28;20421;-57
2023/04/09 03:07:51;;;;;;;18.73;15.77;;;;;;;;;;5034556;28;20447;-59
2023/04/09 03:10:17;;;;;;;17.73;14.93;;;;;;;;;;5034450;28;20443;-57
2023/04/09 03:12:43;;;;;;;23.63;16.40;;;;;;;;;;5034886;28;20775;-56
2023/04/09 03:15:09;;;;;;;16.73;15.10;;;;;;;;;;5034260;28;20418;-58
2023/04/09 03:17:38;;;;;;;17.63;15.00;;;;;;;;;;5034510;28;20375;-58
2023/04/09 03:20:04;;;;;;;16.00;14.30;;;;;;;;;;5034804;28;20424;-58
2023/04/09 03:22:35;;;;;;;17.97;16.13;;;;;;;;;;5034453;28;20416;-58
2023/04/09 03:25:00;;;;;;;16.33;14.73;;;;;;;;;;5016840;28;20505;-56
2023/04/09 03:27:26;;;;;;;16.50;14.77;;;;;;;;;;5034370;28;20849;-58
2023/04/09 03:29:57;;;;;;;16.87;15.17;;;;;;;;;;5033637;28;20424;-58
2023/04/09 03:32:23;;;;;;;17.93;16.00;;;;;;;;;;5034336;28;20443;-57
2023/04/09 03:34:49;;;;;;;21.97;16.10;;;;;;;;;;5033595;28;20413;-57
2023/04/09 03:37:15;;;;;;;19.10;15.57;;;;;;;;;;5033671;28;20471;-55
2023/04/09 03:39:44;;;;;;;17.20;15.33;;;;;;;;;;5033507;28;20728;-57
2023/04/09 03:42:10;;;;;;;17.50;15.70;;;;;;;;;;5034227;28;20820;-58
2023/04/09 03:44:35;;;;;;;17.00;15.37;;;;;;;;;;5033762;28;20386;-58
2023/04/09 03:47:02;;;;;;;17.70;15.70;;;;;;;;;;5034152;28;20416;-57
2023/04/09 03:49:28;;;;;;;17.97;15.30;;;;;;;;;;5033391;28;20425;-58
2023/04/09 03:51:54;;;;;;;17.43;14.93;;;;;;;;;;5032928;28;20786;-58
2023/04/09 03:54:20;;;;;;;19.77;15.90;;;;;;;;;;5033422;28;20410;-58
2023/04/09 03:56:55;;;;;;;20.23;16.87;;;;;;;;;;5033570;28;20349;-58
2023/04/09 03:59:21;;;;;;;16.80;15.13;;;;;;;;;;5033527;28;20395;-58
2023/04/09 04:01:47;;;;;;;19.47;15.77;;;;;;;;;;4999177;28;20710;-58
2023/04/09 04:04:13;;;;;;;18.20;15.80;;;;;;;;;;5015410;28;20390;-58
2023/04/09 04:06:39;;;;;;;17.33;15.63;;;;;;;;;;5033483;28;20882;-59
2023/04/09 04:09:05;;;;;;;18.10;16.30;;;;;;;;;;5033463;28;20510;-56
2023/04/09 04:11:33;;;;;;;18.17;16.25;;;;;;;;;;5033501;28;20427;-59
2023/04/09 04:14:02;;;;;;;17.40;15.53;;;;;;;;;;5033352;28;20185;-58
2023/04/09 04:16:28;;;;;;;17.58;14.40;;;;;;;;;;5033266;28;20549;-59
2023/04/09 04:18:54;;;;;;;17.10;15.33;;;;;;;;;;5033339;28;20240;-56
2023/04/09 04:21:20;;;;;;;17.03;14.83;;;;;;;;;;5033306;28;20746;-56
2023/04/09 04:23:46;;;;;;;15.68;14.10;;;;;;;;;;5033042;28;20685;-58
2023/04/09 04:26:12;;;;;;;15.73;14.13;;;;;;;;;;5033626;28;20181;-57
2023/04/09 04:28:38;;;;;;;16.57;12.73;;;;;;;;;;5033114;28;20812;-58
2023/04/09 04:31:10;;;;;;;19.80;14.15;;;;;;;;;;5033482;28;20757;-58
2023/04/09 04:33:37;;;;;;;15.85;13.73;;;;;;;;;;5033173;28;20737;-58
2023/04/09 04:36:05;;;;;;;14.30;12.90;;;;;;;;;;5032870;28;20205;-57
2023/04/09 04:38:33;;;;;;;21.65;14.43;;;;;;;;;;5033000;28;20265;-58
2023/04/09 04:40:59;;;;;;;16.37;12.87;;;;;;;;;;5032657;28;20173;-58
2023/04/09 04:43:25;;;;;;;13.97;12.57;;;;;;;;;;5014900;28;20849;-58
2023/04/09 04:45:51;;;;;;;14.40;13.00;;;;;;;;;;5032424;28;20502;-58
2023/04/09 04:48:17;;;;;;;14.60;13.20;;;;;;;;;;5032578;28;20400;-58
2023/04/09 04:50:46;;;;;;;14.50;13.03;;;;;;;;;;5032585;28;20561;-57
2023/04/09 04:53:12;;;;;;;16.58;14.80;;;;;;;;;;5032558;28;20423;-58
2023/04/09 04:55:40;;;;;;;14.93;13.10;;;;;;;;;;5032504;28;20581;-58
2023/04/09 04:58:06;;;;;;;16.38;14.15;;;;;;;;;;5032324;28;20536;-57
2023/04/09 05:00:32;;;;;;;15.83;14.20;;;;;;;;;;5032300;28;20217;-58
2023/04/09 05:03:00;;;;;;;15.03;13.50;;;;;;;;;;5032269;28;20837;-58
2023/04/09 05:05:26;;;;;;;17.30;15.27;;;;;;;;;;5032369;28;20500;-57
2023/04/09 05:07:52;;;;;;;16.03;14.40;;;;;;;;;;5032227;28;20200;-58
2023/04/09 05:10:18;;;;;;;16.00;14.30;;;;;;;;;;5032452;28;20416;-58
2023/04/09 05:12:47;;;;;;;24.90;13.07;;;;;;;;;;5032445;28;20562;-58
2023/04/09 05:15:13;;;;;;;15.20;13.60;;;;;;;;;;5032105;28;20267;-58
2023/04/09 05:17:42;;;;;;;15.90;14.20;;;;;;;;;;5032146;28;20328;-58
2023/04/09 05:20:08;;;;;;;17.63;14.75;;;;;;;;;;5032107;28;20418;-58
2023/04/09 05:22:36;;;;;;;15.32;13.52;;;;;;;;;;5014355;28;20191;-58
2023/04/09 05:25:02;;;;;;;17.65;15.23;;;;;;;;;;5031942;28;20196;-58
2023/04/09 05:27:28;;;;;;;16.35;14.60;;;;;;;;;;5032123;28;20543;-58
2023/04/09 05:29:54;;;;;;;18.00;16.20;;;;;;;;;;5032013;28;20279;-58
2023/04/09 05:32:20;;;;;;;19.20;16.93;;;;;;;;;;5014204;28;20424;-58
2023/04/09 05:34:49;;;;;;;17.00;15.20;;;;;;;;;;5014467;28;20837;-58
2023/04/09 05:37:15;;;;;;;15.13;13.68;;;;;;;;;;5031452;28;20554;-58
2023/04/09 05:39:41;;;;;;;18.85;16.85;;;;;;;;;;5031493;28;20201;-58
2023/04/09 05:42:07;;;;;;;16.63;15.00;;;;;;;;;;5031771;28;20196;-58
2023/04/09 05:44:35;;;;;;;15.93;14.33;;;;;;;;;;5031765;28;20403;-58
2023/04/09 05:47:02;;;;;;;15.25;13.70;;;;;;;;;;5031664;28;20505;-58
2023/04/09 05:49:27;;;;;;;14.15;12.75;;;;;;;;;;5030718;28;20177;-58
2023/04/09 05:51:56;;;;;;;13.43;12.23;;;;;;;;;;5013343;28;20703;-56
2023/04/09 05:54:22;;;;;;;14.88;13.45;;;;;;;;;;5030356;28;20461;-58
2023/04/09 05:56:48;;;;;;;14.00;12.70;;;;;;;;;;5030896;28;20217;-56
2023/04/09 05:59:14;;;;;;;15.33;13.73;;;;;;;;;;5030970;28;20412;-57
2023/04/09 06:01:42;;;;;;;14.90;13.47;;;;;;;;;;5031021;28;20774;-57
2023/04/09 06:04:11;;;;;;;14.77;13.07;;;;;;;;;;5031201;28;20397;-57
2023/04/09 06:06:37;;;;;;;15.30;13.80;;;;;;;;;;5031966;28;20169;-57
2023/04/09 06:09:03;;;;;;;15.70;14.02;;;;;;;;;;5031534;28;20491;-57
2023/04/09 06:11:32;;;;;;;14.60;13.10;;;;;;;;;;5031550;28;20287;-57
2023/04/09 06:14:01;;;;;;;15.93;14.43;;;;;;;;;;5031732;28;20413;-57
2023/04/09 06:16:27;;;;;;;14.67;13.27;;;;;;;;;;5034679;28;20999;-57
2023/04/09 06:18:55;;;;;;;16.80;14.17;;;;;;;;;;5035185;28;20512;-58
2023/04/09 06:21:21;;;;;;;16.43;14.73;;;;;;;;;;5035083;28;20419;-56
2023/04/09 06:23:47;;;;;;;16.67;14.97;;;;;;;;;;5035278;28;20411;-58
2023/04/09 06:26:13;;;;;;;25.30;18.40;;;;;;;;;;5034980;28;20386;-58
2023/04/09 06:28:39;;;;;;;18.37;16.40;;;;;;;;;;5035055;28;20545;-58
2023/04/09 06:31:08;;;;;;;16.90;14.70;;;;;;;;;;5034722;28;20414;-58
2023/04/09 06:33:34;;;;;;;16.23;14.63;;;;;;;;;;5034946;28;20419;-58
2023/04/09 06:36:02;;;;;;;15.70;14.30;;;;;;;;;;5034913;28;20522;-58
2023/04/09 06:38:28;;;;;;;14.90;13.37;;;;;;;;;;5034969;28;20428;-58
2023/04/09 06:40:56;;;;;;;15.53;13.57;;;;;;;;;;5017113;28;20517;-58
2023/04/09 06:43:22;;;;;;;39.90;28.27;;;;;;;;;;5034740;28;20418;-58
2023/04/09 06:45:48;;;;;;;25.20;19.77;;;;;;;;;;5034607;28;20431;-58
2023/04/09 06:48:14;;;;;;;23.40;17.67;;;;;;;;;;5035141;28;20405;-58
2023/04/09 06:50:43;;;;;;;17.43;15.53;;;;;;;;;;5034628;28;20826;-58
2023/04/09 06:53:09;;;;;;;15.80;14.10;;;;;;;;;;5034724;28;20436;-57
2023/04/09 06:55:35;;;;;;;13.37;11.93;;;;;;;;;;5034425;28;20824;-58
2023/04/09 06:58:03;;;;;;;13.40;12.00;;;;;;;;;;5034250;28;20554;-57
2023/04/09 07:00:30;;;;;;;12.20;11.10;;;;;;;;;;5034432;28;20434;-58
2023/04/09 07:02:56;;;;;;;13.73;12.43;;;;;;;;;;5034203;28;20498;-58
2023/04/09 07:05:22;;;;;;;12.30;11.20;;;;;;;;;;5034408;28;20918;-58
2023/04/09 07:07:51;;;;;;;12.33;11.23;;;;;;;;;;5034364;28;20503;-58
2023/04/09 07:10:17;;;;;;;13.00;11.80;;;;;;;;;;5016594;28;20958;-57
2023/04/09 07:12:43;;;;;;;11.37;10.33;;;;;;;;;;5034285;28;20394;-58
2023/04/09 07:15:09;;;;;;;11.23;10.13;;;;;;;;;;5034136;28;20446;-58
2023/04/09 07:17:37;;;;;;;10.20;9.40;;;;;;;;;;5034179;28;20422;-58
2023/04/09 07:20:06;;;;;;;10.93;9.77;;;;;;;;;;5034272;28;20428;-58
2023/04/09 07:22:32;;;;;;;10.57;9.67;;;;;;;;;;5034209;28;20420;-58
2023/04/09 07:24:58;;;;;;;9.73;9.03;;;;;;;;;;5034025;28;20412;-58
2023/04/09 07:27:27;;;;;;;10.77;9.87;;;;;;;;;;5032817;28;20926;-58
2023/04/09 07:29:57;;;;;;;10.60;9.70;;;;;;;;;;5034215;28;20576;-58
2023/04/09 07:32:23;;;;;;;9.97;9.07;;;;;;;;;;5034141;28;20424;-58
2023/04/09 07:34:52;;;;;;;10.83;9.93;;;;;;;;;;5034339;28;20418;-57
2023/04/09 07:37:21;;;;;;;10.40;9.50;;;;;;;;;;5034270;28;20842;-57
2023/04/09 07:39:52;;;;;;;9.63;8.83;;;;;;;;;;5033700;28;20471;-57
2023/04/09 07:42:20;;;;;;;9.27;8.53;;;;;;;;;;5033607;28;20467;-58
2023/04/09 07:44:47;;;;;;;9.23;8.50;;;;;;;;;;5033899;28;20481;-57
2023/04/09 07:47:15;;;;;;;7.50;7.00;;;;;;;;;;5033890;28;20828;-58
2023/04/09 07:49:41;;;;;;;9.27;8.50;;;;;;;;;;5034136;28;20412;-57
2023/04/09 07:52:07;;;;;;;7.70;7.20;;;;;;;;;;5033799;28;20458;-56
2023/04/09 07:54:36;;;;;;;6.70;6.30;;;;;;;;;;5034040;28;20410;-57
2023/04/09 07:57:02;;;;;;;6.87;6.47;;;;;;;;;;5033941;28;20570;-57
2023/04/09 07:59:30;;;;;;;6.67;6.27;;;;;;;;;;5016305;28;20887;-58
2023/04/09 08:01:56;;;;;;;6.37;5.97;;;;;;;;;;5033527;28;20459;-57
2023/04/09 08:04:22;;;;;;;6.10;5.80;;;;;;;;;;5034091;28;20408;-57
2023/04/09 08:06:54;;;;;;;5.83;5.53;;;;;;;;;;5033716;28;20478;-57
2023/04/09 08:09:20;;;;;;;5.90;5.60;;;;;;;;;;5033788;28;20426;-57
2023/04/09 08:11:47;;;;;;;6.47;6.07;;;;;;;;;;5033728;28;20444;-57
2023/04/09 08:14:13;;;;;;;6.17;5.77;;;;;;;;;;5033827;28;20802;-57
2023/04/09 08:16:42;;;;;;;5.53;5.23;;;;;;;;;;5033648;28;20946;-55
2023/04/09 08:19:08;;;;;;;5.57;5.17;;;;;;;;;;5033737;28;20423;-56
2023/04/09 08:21:37;;;;;;;5.17;4.97;;;;;;;;;;5033228;28;20530;-55
2023/04/09 08:24:04;;;;;;;5.97;5.57;;;;;;;;;;5033478;28;20515;-55
2023/04/09 08:26:30;;;;;;;5.60;5.40;;;;;;;;;;5033323;28;20451;-55
2023/04/09 08:28:58;;;;;;;4.27;4.17;;;;;;;;;;5033263;28;20412;-57
2023/04/09 08:31:25;;;;;;;4.10;4.00;;;;;;;;;;5032692;28;20436;-57
2023/04/09 08:33:52;;;;;;;3.53;3.43;;;;;;;;;;5033017;28;20498;-58
2023/04/09 08:36:18;;;;;;;3.10;3.10;;;;;;;;;;5032930;28;20516;-55
2023/04/09 08:38:45;;;;;;;3.33;3.23;;;;;;;;;;5014926;28;20503;-56
2023/04/09 08:41:17;;;;;;;3.70;3.60;;;;;;;;;;5033222;28;20895;-58
2023/04/09 08:43:44;;;;;;;3.07;2.97;;;;;;;;;;5033403;28;20424;-58
2023/04/09 08:46:14;;;;;;;3.23;3.13;;;;;;;;;;5015397;28;20415;-57
2023/04/09 08:48:41;;;;;;;4.10;3.90;;;;;;;;;;5033115;28;20829;-55
2023/04/09 08:51:14;;;;;;;3.17;3.07;;;;;;;;;;5033096;28;20506;-55
2023/04/09 08:53:42;;;;;;;2.83;2.83;;;;;;;;;;5033319;28;20777;-55
2023/04/09 08:56:12;;;;;;;2.93;2.93;;;;;;;;;;5032640;28;20499;-56
2023/04/09 08:58:39;;;;;;;3.70;3.60;;;;;;;;;;5032543;28;20431;-56
2023/04/09 09:01:17;;;;;;;3.20;3.20;;;;;;;;;;5032698;28;20497;-55
2023/04/09 09:03:59;;;;;;;3.87;3.77;;;;;;;;;;5032962;28;20398;-57
2023/04/09 09:06:27;;;;;;;3.47;3.37;;;;;;;;;;5032323;28;20881;-57
2023/04/09 09:09:04;;;;;;;3.10;3.10;;;;;;;;;;5032638;28;20483;-56
2023/04/09 09:11:30;;;;;;;3.73;3.63;;;;;;;;;;5032734;28;20432;-57
2023/04/09 09:13:57;;;;;;;3.47;3.37;;;;;;;;;;5032722;28;20404;-56
2023/04/09 09:16:24;;;;;;;3.10;3.10;;;;;;;;;;5032491;28;20470;-57
2023/04/09 09:18:54;;;;;;;3.57;3.50;;;;;;;;;;5032435;28;20412;-57
2023/04/09 09:21:22;;;;;;;2.80;2.70;;;;;;;;;;5032367;28;20901;-57
2023/04/09 09:23:49;;;;;;;3.70;3.60;;;;;;;;;;5032380;28;20408;-57
2023/04/09 09:26:26;;;;;;;3.97;3.87;;;;;;;;;;5032540;28;20469;-56
2023/04/09 09:29:10;;;;;;;3.83;3.73;;;;;;;;;;5032544;28;20427;-57
2023/04/09 09:31:46;;;;;;;3.90;3.80;;;;;;;;;;5031907;28;20451;-57
2023/04/09 09:34:12;;;;;;;3.80;3.70;;;;;;;;;;5032174;28;20446;-57
2023/04/09 09:36:38;;;;;;;4.10;4.00;;;;;;;;;;5032252;28;20464;-56
2023/04/09 09:39:08;;;;;;;3.63;3.57;;;;;;;;;;5031913;28;20494;-57
2023/04/09 09:41:37;;;;;;;3.60;3.50;;;;;;;;;;5032291;28;20767;-56
2023/04/09 09:44:05;;;;;;;3.60;3.50;;;;;;;;;;5014329;28;20499;-56
2023/04/09 09:46:34;;;;;;;3.47;3.40;;;;;;;;;;5032321;28;20459;-57
2023/04/09 09:49:00;;;;;;;3.70;3.60;;;;;;;;;;5032257;28;20410;-57
2023/04/09 09:51:29;;;;;;;3.80;3.70;;;;;;;;;;5036082;28;20432;-55
2023/04/09 09:53:56;;;;;;;3.40;3.30;;;;;;;;;;5036184;28;20935;-56
2023/04/09 09:56:31;;;;;;;3.27;3.17;;;;;;;;;;5036386;28;20473;-55
2023/04/09 09:59:09;;;;;;;3.40;3.30;;;;;;;;;;5036403;28;20410;-56
2023/04/09 10:01:35;;;;;;;4.00;3.90;;;;;;;;;;5035766;28;20913;-57
2023/04/09 10:04:02;;;;;;;4.17;4.07;;;;;;;;;;5035945;28;20540;-56
2023/04/09 10:06:29;;;;;;;3.37;3.27;;;;;;;;;;5036157;28;20858;-57
2023/04/09 10:09:00;;;;;;;3.70;3.60;;;;;;;;;;5035575;28;20461;-57
2023/04/09 10:11:26;;;;;;;4.13;4.03;;;;;;;;;;5035998;28;20417;-57
2023/04/09 10:13:56;;;;;;;3.60;3.50;;;;;;;;;;5018490;28;20509;-57
2023/04/09 10:16:22;;;;;;;3.20;3.20;;;;;;;;;;5035735;28;20474;-57
2023/04/09 10:18:48;;;;;;;3.67;3.50;;;;;;;;;;5035809;28;20936;-57
2023/04/09 10:21:20;;;;;;;3.40;3.20;;;;;;;;;;5035700;28;20406;-57
2023/04/09 10:23:49;;;;;;;3.80;3.60;;;;;;;;;;5035849;28;20462;-57
2023/04/09 10:26:17;;;;;;;3.70;3.60;;;;;;;;;;5035871;28;20426;-57
2023/04/09 10:28:45;;;;;;;4.07;3.77;;;;;;;;;;5035808;28;20809;-57
2023/04/09 10:31:12;;;;;;;3.80;3.60;;;;;;;;;;5035725;28;20852;-57
2023/04/09 10:33:38;;;;;;;3.30;3.20;;;;;;;;;;5035908;28;20447;-57
2023/04/09 10:36:05;;;;;;;3.13;3.13;;;;;;;;;;5035470;28;20505;-57
2023/04/09 10:38:34;;;;;;;3.53;3.43;;;;;;;;;;5017192;28;20442;-57
2023/04/09 10:41:06;;;;;;;3.40;3.30;;;;;;;;;;5035265;28;20414;-57
2023/04/09 10:43:34;;;;;;;3.30;3.20;;;;;;;;;;5034824;28;20781;-57
2023/04/09 10:46:00;;;;;;;3.80;3.70;;;;;;;;;;5035028;28;20497;-56
2023/04/09 10:48:29;;;;;;;3.80;3.70;;;;;;;;;;5035656;28;20438;-57
2023/04/09 10:50:55;;;;;;;4.67;4.57;;;;;;;;;;5035311;28;20988;-57
2023/04/09 10:53:22;;;;;;;3.60;3.50;;;;;;;;;;5035071;28;20439;-56
2023/04/09 10:55:52;;;;;;;4.17;4.07;;;;;;;;;;5017185;28;20466;-58
2023/04/09 10:58:18;;;;;;;3.60;3.50;;;;;;;;;;5034875;28;20435;-58
2023/04/09 11:00:48;;;;;;;3.97;3.87;;;;;;;;;;5034572;28;20446;-57
2023/04/09 11:03:20;;;;;;;4.27;4.17;;;;;;;;;;5034687;28;20440;-57
2023/04/09 11:06:09;;;;;;;4.60;4.50;;;;;;;;;;5035342;28;20441;-56
2023/04/09 11:08:37;;;;;;;4.00;3.90;;;;;;;;;;5034559;28;20480;-57
2023/04/09 11:11:03;;;;;;;4.10;4.00;;;;;;;;;;5034909;28;20421;-55
2023/04/09 11:13:30;;;;;;;4.23;4.13;;;;;;;;;;5034151;28;20442;-55
2023/04/09 11:15:57;;;;;;;3.30;3.30;;;;;;;;;;5034774;28;20466;-56
2023/04/09 11:18:27;;;;;;;4.20;4.10;;;;;;;;;;5034987;28;20440;-55
2023/04/09 11:20:56;;;;;;;3.60;3.50;;;;;;;;;;5034918;28;20408;-57
2023/04/09 11:23:23;;;;;;;3.53;3.43;;;;;;;;;;5016981;28;20603;-56
2023/04/09 11:25:50;;;;;;;3.33;3.23;;;;;;;;;;5035216;28;20421;-56
2023/04/09 11:28:16;;;;;;;3.30;3.03;;;;;;;;;;5034709;28;21038;-56
2023/04/09 11:30:42;;;;;;;3.10;3.10;;;;;;;;;;5034331;28;20408;-56
2023/04/09 11:33:08;;;;;;;3.40;3.40;;;;;;;;;;5034523;28;20432;-55
2023/04/09 11:35:37;;;;;;;3.80;3.70;;;;;;;;;;5034323;28;20464;-57
2023/04/09 11:38:07;;;;;;;3.53;3.43;;;;;;;;;;5034430;28;20437;-55
2023/04/09 11:40:33;;;;;;;3.50;3.40;;;;;;;;;;5034476;28;20926;-55
2023/04/09 11:43:02;;;;;;;3.40;3.33;;;;;;;;;;5034358;28;20490;-55
2023/04/09 11:45:30;;;;;;;2.87;2.87;;;;;;;;;;5034296;28;20407;-56
2023/04/09 11:47:56;;;;;;;2.37;2.37;;;;;;;;;;5034236;28;20464;-56
2023/04/09 11:50:22;;;;;;;2.67;2.67;;;;;;;;;;5034328;28;20396;-56
2023/04/09 11:52:51;;;;;;;2.90;2.90;;;;;;;;;;5033834;28;20418;-55
2023/04/09 11:55:27;;;;;;;3.03;3.03;;;;;;;;;;5033366;28;20843;-55
2023/04/09 11:57:56;;;;;;;3.27;3.20;;;;;;;;;;5034073;28;20405;-57
2023/04/09 12:00:25;;;;;;;2.60;2.60;;;;;;;;;;5033771;28;20484;-57
2023/04/09 12:03:01;;;;;;;2.80;2.80;;;;;;;;;;5034009;28;20425;-57
2023/04/09 12:05:31;;;;;;;2.47;2.47;;;;;;;;;;5034137;28;20398;-58
2023/04/09 12:08:01;;;;;;;2.50;2.50;;;;;;;;;;5034019;28;20407;-57
2023/04/09 12:10:28;;;;;;;2.70;2.70;;;;;;;;;;5034088;28;20402;-57
2023/04/09 12:12:54;;;;;;;2.40;2.40;;;;;;;;;;5033154;28;20817;-56
2023/04/09 12:15:24;;;;;;;2.50;2.40;;;;;;;;;;5034041;28;20501;-56
2023/04/09 12:17:51;;;;;;;2.07;2.07;;;;;;;;;;5034122;28;20458;-56
2023/04/09 12:20:29;;;;;;;2.50;2.50;;;;;;;;;;5033772;28;20430;-57
2023/04/09 12:22:55;;;;;;;2.77;2.77;;;;;;;;;;5033555;28;20415;-57
2023/04/09 12:25:21;;;;;;;2.73;2.73;;;;;;;;;;5033767;28;20779;-55
2023/04/09 12:27:47;;;;;;;2.77;2.77;;;;;;;;;;5033606;28;20422;-56
2023/04/09 12:30:13;;;;;;;3.07;2.77;;;;;;;;;;5033564;28;20433;-55
2023/04/09 12:32:41;;;;;;;3.07;3.00;;;;;;;;;;5033384;28;20498;-57
2023/04/09 12:35:10;;;;;;;3.20;3.10;;;;;;;;;;5033835;28;20420;-57
2023/04/09 12:37:36;;;;;;;2.80;2.70;;;;;;;;;;5033369;28;20465;-56
2023/04/09 12:40:02;;;;;;;2.50;2.50;;;;;;;;;;5033229;28;20435;-57
2023/04/09 12:42:28;;;;;;;2.53;2.53;;;;;;;;;;5033256;28;20498;-61
2023/04/09 12:44:56;;;;;;;2.77;2.77;;;;;;;;;;5033152;28;20441;-55
2023/04/09 12:47:22;;;;;;;2.50;2.50;;;;;;;;;;5033120;28;20414;-57
2023/04/09 12:49:49;;;;;;;2.43;2.43;;;;;;;;;;5033020;28;20521;-55
2023/04/09 12:52:17;;;;;;;2.50;2.50;;;;;;;;;;5015112;28;20422;-56
2023/04/09 12:54:43;;;;;;;2.90;2.80;;;;;;;;;;5033048;28;20462;-55
2023/04/09 12:57:09;;;;;;;3.10;3.10;;;;;;;;;;5015268;28;20473;-56
2023/04/09 12:59:38;;;;;;;2.90;2.90;;;;;;;;;;5032955;28;20526;-56
2023/04/09 13:02:04;;;;;;;3.30;3.10;;;;;;;;;;5032726;28;20449;-55
2023/04/09 13:04:29;;;;;;;2.70;2.70;;;;;;;;;;5032894;28;20520;-56
2023/04/09 13:06:56;;;;;;;4.77;4.47;;;;;;;;;;5032766;28;20417;-58
2023/04/09 13:09:22;;;;;;;3.83;3.10;;;;;;;;;;5032771;28;20483;-56
2023/04/09 13:11:48;;;;;;;2.77;2.77;;;;;;;;;;5033002;28;20433;-56
2023/04/09 13:14:14;;;;;;;2.43;2.33;;;;;;;;;;5032435;28;20489;-56
2023/04/09 13:16:40;;;;;;;3.13;3.03;;;;;;;;;;5032677;28;20949;-58
2023/04/09 13:19:07;;;;;;;3.27;3.07;;;;;;;;;;5032499;28;20422;-58
2023/04/09 13:21:34;;;;;;;3.03;3.03;;;;;;;;;;5032534;28;20890;-55
2023/04/09 13:24:00;;;;;;;4.17;3.93;;;;;;;;;;5032511;28;20819;-57
2023/04/09 13:26:28;;;;;;;2.63;2.63;;;;;;;;;;5014852;28;20936;-57
2023/04/09 13:28:57;;;;;;;2.80;2.70;;;;;;;;;;5014935;28;20429;-57
2023/04/09 13:31:26;;;;;;;9.30;3.20;;;;;;;;;;5032585;28;20850;-57
2023/04/09 13:33:52;;;;;;;2.23;2.23;;;;;;;;;;5032384;28;20506;-55
2023/04/09 13:36:18;;;;;;;3.73;3.43;;;;;;;;;;5032468;28;20561;-57
2023/04/09 13:38:44;;;;;;;4.13;3.93;;;;;;;;;;5032396;28;20497;-57
2023/04/09 13:41:13;;;;;;;2.60;2.60;;;;;;;;;;5014575;28;20447;-57
2023/04/09 13:43:39;;;;;;;2.63;2.53;;;;;;;;;;5032214;28;20908;-56
2023/04/09 13:46:08;;;;;;;2.63;2.53;;;;;;;;;;5032389;28;20433;-55
2023/04/09 13:48:34;;;;;;;2.80;2.70;;;;;;;;;;5032319;28;20473;-57
2023/04/09 13:51:00;;;;;;;2.30;2.30;;;;;;;;;;5032162;28;20441;-57
2023/04/09 13:53:26;;;;;;;2.43;2.43;;;;;;;;;;5032256;28;20454;-55
2023/04/09 13:55:52;;;;;;;2.87;2.77;;;;;;;;;;5032122;28;20500;-55
2023/04/09 13:58:20;;;;;;;3.53;3.37;;;;;;;;;;5032293;28;20405;-57
2023/04/09 14:00:47;;;;;;;4.67;4.47;;;;;;;;;;5032059;28;21012;-55
2023/04/09 14:03:13;;;;;;;3.10;3.00;;;;;;;;;;5032358;28;20410;-57
2023/04/09 14:05:39;;;;;;;5.50;5.10;;;;;;;;;;5014468;28;20457;-56
2023/04/09 14:08:05;;;;;;;4.90;4.57;;;;;;;;;;5032194;28;20514;-59
2023/04/09 14:10:31;;;;;;;21.73;18.38;;;;;;;;;;5030593;28;20409;-56
2023/04/09 14:12:57;;;;;;;8.23;7.60;;;;;;;;;;5031977;28;20180;-57
2023/04/09 14:15:23;;;;;;;26.40;19.60;;;;;;;;;;5031918;28;20443;-57
2023/04/09 14:17:49;;;;;;;31.90;24.07;;;;;;;;;;5031995;28;20431;-58
2023/04/09 14:20:15;;;;;;;12.70;11.40;;;;;;;;;;5031934;28;20865;-58
2023/04/09 14:22:41;;;;;;;7.67;7.03;;;;;;;;;;5032089;28;20420;-57
2023/04/09 14:25:08;;;;;;;5.50;5.20;;;;;;;;;;5031866;28;20549;-57
2023/04/09 14:27:34;;;;;;;7.57;6.97;;;;;;;;;;5031665;28;20916;-56
2023/04/09 14:30:00;;;;;;;5.30;5.00;;;;;;;;;;5031439;28;20426;-57